createdAt,value
2023-04-09T00:00:13.922Z,99879.97
2023-04-09T00:02:41.729Z,99875.06
2023-04-09T00:05:10.139Z,99872.44
2023-04-09T00:07:37.984Z,99878.06
2023-04-09T00:10:07.145Z,99871.91
2023-04-09T00:12:35.483Z,99876.28
2023-04-09T00:15:03.646Z,99883.84
2023-04-09T00:17:31.596Z,99876.38
2023-04-09T00:19:59.855Z,99868.97
2023-04-09T00:22:27.826Z,99869.69
2023-04-09T00:24:55.864Z,99874.84
2023-04-09T00:27:24.132Z,99866.38
2023-04-09T00:29:55.131Z,99866.34
2023-04-09T00:32:23.018Z,99873.34
2023-04-09T00:34:51.534Z,99874.56
2023-04-09T00:37:19.522Z,99872.19
2023-04-09T00:39:47.864Z,99868.88
2023-04-09T00:42:16.787Z,99869.47
2023-04-09T00:44:45.398Z,99867.28
2023-04-09T00:47:13.484Z,99869.59
2023-04-09T00:49:41.791Z,99871.19
2023-04-09T00:52:09.743Z,99870.00
2023-04-09T00:54:37.895Z,99868.25
2023-04-09T00:57:06.277Z,99866.50
2023-04-09T00:59:34.315Z,99870.06
2023-04-09T01:02:02.419Z,99859.22
2023-04-09T01:04:30.936Z,99863.41
2023-04-09T01:07:23.845Z,99864.87
2023-04-09T01:10:01.196Z,99867.84
2023-04-09T01:12:51.253Z,99868.41
2023-04-09T01:15:24.290Z,99865.44
2023-04-09T01:18:16.646Z,99868.03
2023-04-09T01:21:15.435Z,99864.44
2023-04-09T01:24:01.984Z,99864.66
2023-04-09T01:27:09.070Z,99872.69
2023-04-09T01:29:46.215Z,99863.87
2023-04-09T01:32:17.122Z,99861.94
2023-04-09T01:34:46.749Z,99867.38
2023-04-09T01:37:16.377Z,99866.22
2023-04-09T01:39:44.924Z,99866.31
2023-04-09T01:42:13.515Z,99863.84
2023-04-09T01:44:42.266Z,99869.69
2023-04-09T01:47:10.518Z,99867.16
2023-04-09T01:49:39.512Z,99869.13
2023-04-09T01:52:07.982Z,99873.47
2023-04-09T01:54:36.118Z,99861.66
2023-04-09T01:57:04.139Z,99873.88
2023-04-09T01:59:32.517Z,99873.31
2023-04-09T02:02:02.187Z,99871.94
2023-04-09T02:04:34.859Z,99874.47
2023-04-09T02:07:18.470Z,99866.66
2023-04-09T02:09:48.444Z,99870.63
2023-04-09T02:12:18.536Z,99869.38
2023-04-09T02:14:47.387Z,99861.34
2023-04-09T02:17:15.702Z,99865.31
2023-04-09T02:19:46.234Z,99865.59
2023-04-09T02:22:15.661Z,99858.69
2023-04-09T02:24:44.292Z,99858.53
2023-04-09T02:27:12.336Z,99859.22
2023-04-09T02:29:41.202Z,99860.66
2023-04-09T02:32:09.602Z,99865.09
2023-04-09T02:34:37.457Z,99852.91
2023-04-09T02:37:05.433Z,99862.50
2023-04-09T02:39:33.902Z,99852.78
2023-04-09T02:42:02.375Z,99856.81
2023-04-09T02:44:30.367Z,99855.44
2023-04-09T02:46:58.618Z,99851.47
2023-04-09T02:49:26.566Z,99852.25
2023-04-09T02:51:54.636Z,99860.03
2023-04-09T02:54:22.975Z,99857.25
2023-04-09T02:56:50.946Z,99848.34
2023-04-09T02:59:18.917Z,99852.88
2023-04-09T03:01:47.394Z,99844.62
2023-04-09T03:04:15.684Z,99853.66
2023-04-09T03:06:43.854Z,99852.19
2023-04-09T03:09:12.257Z,99852.72
2023-04-09T03:11:40.143Z,99850.09
2023-04-09T03:14:08.647Z,99847.66
2023-04-09T03:16:36.993Z,99848.78
2023-04-09T03:19:05.374Z,99855.94
2023-04-09T03:21:33.888Z,99848.97
2023-04-09T03:24:02.477Z,99855.63
2023-04-09T03:26:36.253Z,99849.63
2023-04-09T03:29:05.973Z,99852.75
2023-04-09T03:31:34.224Z,99850.38
2023-04-09T03:34:02.234Z,99853.34
2023-04-09T03:36:31.815Z,99860.09
2023-04-09T03:39:00.685Z,99857.47
2023-04-09T03:41:29.412Z,99859.22
2023-04-09T03:43:58.475Z,99855.59
2023-04-09T03:46:26.814Z,99864.03
2023-04-09T03:48:55.841Z,99862.97
2023-04-09T03:51:25.519Z,99849.03
2023-04-09T03:53:54.077Z,99853.19
2023-04-09T03:56:22.590Z,99860.03
2023-04-09T03:58:51.207Z,99861.22
2023-04-09T04:01:19.555Z,99862.44
2023-04-09T04:03:50.203Z,99865.16
2023-04-09T04:06:18.898Z,99870.06
2023-04-09T04:08:47.850Z,99872.94
2023-04-09T04:11:16.668Z,99871.50
2023-04-09T04:13:44.738Z,99869.38
2023-04-09T04:16:12.734Z,99871.06
2023-04-09T04:18:41.491Z,99870.63
2023-04-09T04:21:16.679Z,99868.25
2023-04-09T04:23:45.098Z,99871.37
2023-04-09T04:26:13.934Z,99869.13
2023-04-09T04:28:42.250Z,99872.78
2023-04-09T04:31:12.689Z,99877.69
2023-04-09T04:33:42.676Z,99885.59
2023-04-09T04:36:13.829Z,99880.44
2023-04-09T04:38:42.375Z,99885.47
2023-04-09T04:41:12.044Z,99887.06
2023-04-09T04:43:41.720Z,99887.06
2023-04-09T04:46:10.025Z,99882.81
2023-04-09T04:48:38.094Z,99883.62
2023-04-09T04:51:06.891Z,99883.19
2023-04-09T04:53:35.314Z,99889.38
2023-04-09T04:56:04.686Z,99882.38
2023-04-09T04:58:32.995Z,99886.25
2023-04-09T05:01:01.577Z,99891.47
2023-04-09T05:03:30.139Z,99890.38
2023-04-09T05:05:58.773Z,99893.59
2023-04-09T05:08:28.043Z,99895.88
2023-04-09T05:10:56.634Z,99895.41
2023-04-09T05:13:26.873Z,99904.41
2023-04-09T05:15:54.889Z,99905.50
2023-04-09T05:18:22.945Z,99905.81
2023-04-09T05:20:51.446Z,99907.00
2023-04-09T05:23:19.616Z,99903.97
2023-04-09T05:25:50.021Z,99899.53
2023-04-09T05:28:18.653Z,99904.44
2023-04-09T05:30:47.680Z,99909.00
2023-04-09T05:33:16.244Z,99910.13
2023-04-09T05:35:44.805Z,99905.03
2023-04-09T05:38:13.995Z,99913.97
2023-04-09T05:40:42.992Z,99912.47
2023-04-09T05:43:12.315Z,99906.69
2023-04-09T05:45:40.828Z,99909.81
2023-04-09T05:48:09.358Z,99916.16
2023-04-09T05:50:51.471Z,99912.94
2023-04-09T05:53:22.720Z,99908.34
2023-04-09T05:55:51.358Z,99901.25
2023-04-09T05:58:20.284Z,99911.88
2023-04-09T06:00:48.558Z,99913.19
2023-04-09T06:03:17.131Z,99918.69
2023-04-09T06:05:46.819Z,99914.56
2023-04-09T06:08:14.931Z,99923.16
2023-04-09T06:10:43.236Z,99921.47
2023-04-09T06:13:11.441Z,99922.13
2023-04-09T06:15:39.905Z,99930.00
2023-04-09T06:18:08.224Z,99926.53
2023-04-09T06:20:36.788Z,99929.94
2023-04-09T06:23:05.634Z,99934.91
2023-04-09T06:25:33.901Z,99932.09
2023-04-09T06:28:01.800Z,99925.06
2023-04-09T06:30:29.902Z,99927.00
2023-04-09T06:32:58.178Z,99928.75
2023-04-09T06:35:26.992Z,99924.25
2023-04-09T06:37:54.926Z,99922.91
2023-04-09T06:40:23.662Z,99925.22
2023-04-09T06:42:51.820Z,99931.00
2023-04-09T06:45:21.038Z,99930.72
2023-04-09T06:47:49.764Z,99926.50
2023-04-09T06:50:17.808Z,99922.81
2023-04-09T06:52:45.774Z,99926.75
2023-04-09T06:55:14.435Z,99932.41
2023-04-09T06:57:42.372Z,99938.50
2023-04-09T07:00:11.057Z,99938.00
2023-04-09T07:02:39.751Z,99938.25
2023-04-09T07:05:08.165Z,99945.19
2023-04-09T07:07:36.428Z,99938.16
2023-04-09T07:10:06.489Z,99941.56
2023-04-09T07:12:35.809Z,99941.84
2023-04-09T07:15:05.973Z,99948.69
2023-04-09T07:17:35.040Z,99960.75
2023-04-09T07:20:03.294Z,99952.72
2023-04-09T07:22:31.405Z,99954.53
2023-04-09T07:24:59.720Z,99958.13
2023-04-09T07:27:28.970Z,99960.63
2023-04-09T07:29:58.399Z,99961.84
2023-04-09T07:32:28.553Z,99963.31
2023-04-09T07:34:57.582Z,99963.78
2023-04-09T07:37:26.356Z,99960.63
2023-04-09T07:39:54.909Z,99965.56
2023-04-09T07:42:23.219Z,99954.41
2023-04-09T07:44:51.706Z,99974.44
2023-04-09T07:47:20.003Z,99967.75
2023-04-09T07:49:47.997Z,99963.25
2023-04-09T07:52:16.136Z,99965.63
2023-04-09T07:54:44.829Z,99970.13
2023-04-09T07:57:12.904Z,99973.53
2023-04-09T07:59:40.914Z,99973.69
2023-04-09T08:02:09.640Z,99979.78
2023-04-09T08:04:39.037Z,99973.00
2023-04-09T08:07:07.088Z,99977.38
2023-04-09T08:09:34.999Z,99972.38
2023-04-09T08:12:03.676Z,99974.03
2023-04-09T08:14:32.315Z,99970.59
2023-04-09T08:17:00.784Z,99967.94
2023-04-09T08:19:29.081Z,99968.84
2023-04-09T08:21:57.110Z,99973.19
2023-04-09T08:24:25.146Z,99971.44
2023-04-09T08:26:53.575Z,99981.91
2023-04-09T08:29:21.688Z,99978.44
2023-04-09T08:31:49.705Z,99979.31
2023-04-09T08:34:21.243Z,99975.69
2023-04-09T08:36:50.293Z,99986.06
2023-04-09T08:39:21.801Z,99984.44
2023-04-09T08:41:52.295Z,99988.72
2023-04-09T08:44:22.259Z,99988.84
2023-04-09T08:46:51.267Z,99990.59
2023-04-09T08:49:19.180Z,99999.09
2023-04-09T08:51:48.807Z,100008.75
2023-04-09T08:54:19.133Z,100001.81
2023-04-09T08:56:48.162Z,100011.25
2023-04-09T08:59:18.606Z,100005.25
2023-04-09T09:01:49.602Z,100015.69
2023-04-09T09:04:18.032Z,100019.22
2023-04-09T09:06:46.092Z,100011.44
2023-04-09T09:09:16.310Z,100015.75
2023-04-09T09:11:50.414Z,100021.81
2023-04-09T09:14:19.636Z,100014.03
2023-04-09T09:16:57.903Z,100016.63
2023-04-09T09:19:26.494Z,100008.72
2023-04-09T09:21:59.094Z,100024.31
2023-04-09T09:24:27.091Z,100014.00
2023-04-09T09:26:55.976Z,100013.94
2023-04-09T09:29:23.906Z,100008.72
2023-04-09T09:31:53.339Z,100011.38
2023-04-09T09:34:23.694Z,100016.37
2023-04-09T09:36:51.659Z,100009.59
2023-04-09T09:39:19.597Z,100006.87
2023-04-09T09:41:48.994Z,100009.28
2023-04-09T09:44:33.133Z,100013.63
2023-04-09T09:47:04.043Z,100000.16
2023-04-09T09:49:32.013Z,100000.13
2023-04-09T09:52:03.018Z,99999.19
2023-04-09T09:54:36.569Z,100000.00
2023-04-09T09:57:06.758Z,100005.16
2023-04-09T09:59:38.704Z,99998.28
2023-04-09T10:02:23.310Z,99998.34
2023-04-09T10:04:53.119Z,100000.00
2023-04-09T10:07:22.417Z,100002.69
2023-04-09T10:09:52.449Z,100004.44
2023-04-09T10:12:25.523Z,100003.59
2023-04-09T10:14:55.439Z,100006.09
2023-04-09T10:17:23.872Z,100004.28
2023-04-09T10:20:05.248Z,99999.19
2023-04-09T10:22:36.638Z,100006.06
2023-04-09T10:25:05.312Z,99993.19
2023-04-09T10:27:33.609Z,100002.50
2023-04-09T10:30:02.009Z,99991.44
2023-04-09T10:32:35.309Z,99993.19
2023-04-09T10:35:04.356Z,99989.59
2023-04-09T10:37:32.282Z,100000.84
2023-04-09T10:40:00.237Z,100001.72
2023-04-09T10:42:40.939Z,99997.53
2023-04-09T10:45:14.648Z,100001.84
2023-04-09T10:47:44.320Z,99997.53
2023-04-09T10:50:16.802Z,99990.50
2023-04-09T10:52:45.344Z,100003.56
2023-04-09T10:55:33.537Z,100000.94
2023-04-09T10:58:03.120Z,99998.41
2023-04-09T11:00:31.185Z,99994.88
2023-04-09T11:03:21.972Z,99990.44
2023-04-09T11:06:01.975Z,99996.62
2023-04-09T11:08:31.743Z,99996.59
2023-04-09T11:11:01.725Z,99996.47
2023-04-09T11:13:31.466Z,99994.66
2023-04-09T11:16:03.524Z,99998.22
2023-04-09T11:18:34.096Z,99992.06
2023-04-09T11:21:04.371Z,99996.16
2023-04-09T11:23:33.242Z,99993.19
2023-04-09T11:26:02.239Z,99996.66
2023-04-09T11:28:30.520Z,99988.47
2023-04-09T11:30:58.436Z,99996.03
2023-04-09T11:33:33.548Z,99991.41
2023-04-09T11:36:02.864Z,99981.25
2023-04-09T11:38:31.860Z,99988.34
2023-04-09T11:40:59.798Z,99986.66
2023-04-09T11:43:28.008Z,99994.78
2023-04-09T11:45:57.610Z,99984.91
2023-04-09T11:48:25.817Z,99977.47
2023-04-09T11:50:54.273Z,99976.25
2023-04-09T11:53:23.225Z,99976.41
2023-04-09T11:55:52.385Z,99978.53
2023-04-09T11:58:25.776Z,99980.53
2023-04-09T12:01:00.443Z,99976.19
2023-04-09T12:03:31.137Z,99974.69
2023-04-09T12:06:03.667Z,99978.00
2023-04-09T12:08:35.232Z,99984.97
2023-04-09T12:11:13.658Z,99979.91
2023-04-09T12:13:45.275Z,99981.62
2023-04-09T12:16:13.763Z,99976.78
2023-04-09T12:18:42.358Z,99980.66
2023-04-09T12:21:10.652Z,99978.03
2023-04-09T12:23:38.616Z,99973.66
2023-04-09T12:26:06.959Z,99973.91
2023-04-09T12:28:34.932Z,99974.34
2023-04-09T12:31:03.749Z,99969.19
2023-04-09T12:33:32.604Z,99972.78
2023-04-09T12:36:00.906Z,99973.59
2023-04-09T12:38:28.884Z,99978.87
2023-04-09T12:40:57.194Z,99968.44
2023-04-09T12:43:25.172Z,99973.25
2023-04-09T12:45:53.346Z,99972.09
2023-04-09T12:48:21.644Z,99971.34
2023-04-09T12:50:49.649Z,99970.37
2023-04-09T12:53:17.677Z,99970.19
2023-04-09T12:55:45.935Z,99968.63
2023-04-09T12:58:13.839Z,99973.72
2023-04-09T13:00:42.102Z,99973.69
2023-04-09T13:03:10.826Z,99971.19
2023-04-09T13:05:38.846Z,99970.31
2023-04-09T13:08:07.054Z,99966.06
2023-04-09T13:10:36.685Z,99964.19
2023-04-09T13:13:04.694Z,99960.84
2023-04-09T13:15:32.561Z,99955.59
2023-04-09T13:18:01.066Z,99960.56
2023-04-09T13:20:29.199Z,99957.28
2023-04-09T13:22:57.645Z,99957.38
2023-04-09T13:25:26.295Z,99961.06
2023-04-09T13:27:54.197Z,99951.53
2023-04-09T13:30:22.936Z,99956.53
2023-04-09T13:32:51.230Z,99952.84
2023-04-09T13:35:19.403Z,99953.13
2023-04-09T13:37:47.483Z,99956.50
2023-04-09T13:40:16.617Z,99954.78
2023-04-09T13:42:44.531Z,99951.25
2023-04-09T13:45:12.487Z,99950.31
2023-04-09T13:47:41.362Z,99951.69
2023-04-09T13:50:10.545Z,99952.12
2023-04-09T13:52:38.534Z,99946.81
2023-04-09T13:55:07.816Z,99945.94
2023-04-09T13:57:35.943Z,99947.87
2023-04-09T14:00:05.959Z,99937.22
2023-04-09T14:02:34.745Z,99942.69
2023-04-09T14:05:04.222Z,99942.19
2023-04-09T14:07:32.385Z,99936.78
2023-04-09T14:10:00.670Z,99931.44
2023-04-09T14:12:28.550Z,99928.38
2023-04-09T14:14:56.521Z,99926.69
2023-04-09T14:17:25.017Z,99930.53
2023-04-09T14:19:52.930Z,99920.09
2023-04-09T14:22:20.976Z,99922.81
2023-04-09T14:24:49.223Z,99915.50
2023-04-09T14:27:17.588Z,99919.44
2023-04-09T14:29:45.672Z,99916.87
2023-04-09T14:32:14.024Z,99917.75
2023-04-09T14:34:41.963Z,99914.44
2023-04-09T14:37:09.906Z,99918.41
2023-04-09T14:39:38.245Z,99913.44
2023-04-09T14:42:06.263Z,99914.19
2023-04-09T14:44:34.632Z,99909.72
2023-04-09T14:47:02.943Z,99913.03
2023-04-09T14:49:30.905Z,99912.13
2023-04-09T14:51:59.242Z,99905.81
2023-04-09T14:54:29.107Z,99916.50
2023-04-09T14:56:58.603Z,99913.78
2023-04-09T14:59:27.399Z,99912.56
2023-04-09T15:01:55.899Z,99906.09
2023-04-09T15:04:24.190Z,99904.34
2023-04-09T15:06:52.416Z,99911.81
2023-04-09T15:09:20.808Z,99912.94
2023-04-09T15:11:48.731Z,99910.47
2023-04-09T15:14:16.803Z,99905.19
2023-04-09T15:16:45.195Z,99903.47
2023-04-09T15:19:13.213Z,99905.91
2023-04-09T15:21:41.448Z,99895.44
2023-04-09T15:24:09.741Z,99898.03
2023-04-09T15:26:37.676Z,99895.66
2023-04-09T15:29:07.998Z,99899.16
2023-04-09T15:31:36.648Z,99895.59
2023-04-09T15:34:05.342Z,99897.53
2023-04-09T15:36:33.337Z,99895.81
2023-04-09T15:39:04.594Z,99901.84
2023-04-09T15:41:33.990Z,99899.03
2023-04-09T15:44:02.312Z,99891.28
2023-04-09T15:46:30.611Z,99902.63
2023-04-09T15:48:58.485Z,99898.34
2023-04-09T15:51:27.222Z,99895.59
2023-04-09T15:53:55.205Z,99899.91
2023-04-09T15:56:23.349Z,99899.06
2023-04-09T15:58:51.914Z,99902.44
2023-04-09T16:01:20.055Z,99899.22
2023-04-09T16:03:52.437Z,99906.19
2023-04-09T16:06:21.277Z,99899.97
2023-04-09T16:08:49.824Z,99907.34
2023-04-09T16:11:17.943Z,99900.81
2023-04-09T16:13:46.446Z,99898.34
2023-04-09T16:16:14.869Z,99903.22
2023-04-09T16:18:44.727Z,99897.44
2023-04-09T16:21:14.712Z,99901.00
2023-04-09T16:23:43.017Z,99898.50
2023-04-09T16:26:11.230Z,99900.13
2023-04-09T16:28:39.353Z,99903.66
2023-04-09T16:31:07.780Z,99902.91
2023-04-09T16:33:35.928Z,99896.00
2023-04-09T16:36:04.077Z,99908.03
2023-04-09T16:38:32.550Z,99909.53
2023-04-09T16:41:00.608Z,99898.53
2023-04-09T16:43:30.489Z,99908.09
2023-04-09T16:46:00.770Z,99906.34
2023-04-09T16:48:28.763Z,99909.00
2023-04-09T16:50:56.687Z,99905.53
2023-04-09T16:53:24.910Z,99905.53
2023-04-09T16:55:52.873Z,99908.16
2023-04-09T16:58:20.798Z,99899.44
2023-04-09T17:00:50.716Z,99899.44
2023-04-09T17:03:19.898Z,99909.78
2023-04-09T17:05:51.253Z,99905.44
2023-04-09T17:08:24.521Z,99901.13
2023-04-09T17:10:54.974Z,99900.28
2023-04-09T17:13:22.981Z,99911.53
2023-04-09T17:15:52.464Z,99906.34
2023-04-09T17:18:20.936Z,99899.41
2023-04-09T17:20:50.833Z,99909.81
2023-04-09T17:23:18.817Z,99899.41
2023-04-09T17:25:47.397Z,99908.84
2023-04-09T17:28:16.325Z,99906.25
2023-04-09T17:30:46.281Z,99915.59
2023-04-09T17:33:14.704Z,99921.84
2023-04-09T17:35:43.465Z,99915.75
2023-04-09T17:38:14.253Z,99917.53
2023-04-09T17:40:42.626Z,99916.59
2023-04-09T17:43:10.582Z,99917.31
2023-04-09T17:45:38.499Z,99919.19
2023-04-09T17:48:06.983Z,99921.59
2023-04-09T17:50:38.052Z,99926.84
2023-04-09T17:53:06.402Z,99925.50
2023-04-09T17:55:34.472Z,99929.91
2023-04-09T17:58:03.352Z,99935.91
2023-04-09T18:00:31.903Z,99936.91
2023-04-09T18:03:00.608Z,99939.75
2023-04-09T18:05:29.135Z,99932.75
2023-04-09T18:07:57.552Z,99942.16
2023-04-09T18:10:26.340Z,99936.91
2023-04-09T18:12:54.440Z,99936.22
2023-04-09T18:15:22.703Z,99942.00
2023-04-09T18:17:51.684Z,99947.87
2023-04-09T18:20:20.870Z,99946.75
2023-04-09T18:22:48.974Z,99948.41
2023-04-09T18:25:17.335Z,99952.72
2023-04-09T18:27:45.517Z,99955.13
2023-04-09T18:30:13.584Z,99952.16
2023-04-09T18:32:42.185Z,99952.19
2023-04-09T18:35:10.623Z,99955.66
2023-04-09T18:37:38.914Z,99963.03
2023-04-09T18:40:12.176Z,99963.25
2023-04-09T18:42:40.134Z,99961.19
2023-04-09T18:45:08.938Z,99966.34
2023-04-09T18:47:37.643Z,99965.13
2023-04-09T18:50:06.678Z,99965.88
2023-04-09T18:52:38.542Z,99967.22
2023-04-09T18:55:06.888Z,99972.28
2023-04-09T18:57:36.620Z,99969.13
2023-04-09T19:00:04.985Z,99972.16
2023-04-09T19:02:33.209Z,99974.72
2023-04-09T19:05:02.277Z,99979.88
2023-04-09T19:07:30.263Z,99978.91
2023-04-09T19:09:58.706Z,99980.47
2023-04-09T19:12:30.316Z,99977.56
2023-04-09T19:15:01.142Z,99976.50
2023-04-09T19:17:29.569Z,99985.91
2023-04-09T19:19:57.499Z,99982.59
2023-04-09T19:22:25.631Z,99987.69
2023-04-09T19:24:54.029Z,99983.50
2023-04-09T19:27:21.997Z,99987.16
2023-04-09T19:29:49.964Z,99983.59
2023-04-09T19:32:18.240Z,99985.87
2023-04-09T19:34:46.320Z,99980.53
2023-04-09T19:37:15.381Z,99980.44
2023-04-09T19:39:43.648Z,99978.47
2023-04-09T19:42:11.587Z,99978.37
2023-04-09T19:44:39.703Z,99986.59
2023-04-09T19:47:08.077Z,99988.28
2023-04-09T19:49:36.092Z,99985.81
2023-04-09T19:52:07.017Z,99985.53
2023-04-09T19:54:36.007Z,99984.34
2023-04-09T19:57:04.153Z,99984.28
2023-04-09T19:59:36.440Z,99982.94
2023-04-09T20:02:04.847Z,99990.78
2023-04-09T20:04:33.206Z,99986.69
2023-04-09T20:07:01.559Z,99990.84
2023-04-09T20:09:29.490Z,99989.66
2023-04-09T20:12:04.471Z,99996.25
2023-04-09T20:14:32.460Z,99988.94
2023-04-09T20:17:01.035Z,100001.56
2023-04-09T20:19:29.026Z,99994.41
2023-04-09T20:21:57.311Z,99997.47
2023-04-09T20:24:27.340Z,99999.34
2023-04-09T20:26:56.363Z,100002.13
2023-04-09T20:29:24.395Z,99997.84
2023-04-09T20:31:52.962Z,99992.81
2023-04-09T20:34:26.638Z,99992.00
2023-04-09T20:36:55.700Z,99990.34
2023-04-09T20:39:27.313Z,99991.47
2023-04-09T20:41:56.920Z,99988.78
2023-04-09T20:44:25.009Z,99996.13
2023-04-09T20:46:52.922Z,99987.88
2023-04-09T20:49:21.294Z,99982.75
2023-04-09T20:51:50.064Z,99988.56
2023-04-09T20:54:18.293Z,99984.28
2023-04-09T20:56:46.659Z,99988.28
2023-04-09T20:59:15.324Z,99982.06
2023-04-09T21:01:45.138Z,99995.38
2023-04-09T21:04:14.026Z,99986.78
2023-04-09T21:06:42.128Z,100000.28
2023-04-09T21:09:10.270Z,100000.91
2023-04-09T21:11:38.582Z,99990.97
2023-04-09T21:14:07.216Z,99993.13
2023-04-09T21:16:35.674Z,99995.25
2023-04-09T21:19:07.344Z,99988.69
2023-04-09T21:21:35.594Z,99991.22
2023-04-09T21:24:04.213Z,99989.91
2023-04-09T21:26:45.277Z,99991.31
2023-04-09T21:29:17.330Z,99988.69
2023-04-09T21:31:45.332Z,99984.97
2023-04-09T21:34:13.210Z,99982.06
2023-04-09T21:36:41.590Z,99985.34
2023-04-09T21:39:09.496Z,99986.16
2023-04-09T21:41:37.364Z,99980.19
2023-04-09T21:44:08.692Z,99978.97
2023-04-09T21:46:37.511Z,99983.69
2023-04-09T21:49:06.000Z,99979.63
2023-04-09T21:51:33.856Z,99988.59
2023-04-09T21:54:11.337Z,99983.03
2023-04-09T21:56:40.077Z,99993.28
2023-04-09T21:59:08.028Z,99986.19
2023-04-09T22:01:36.124Z,99983.72
2023-04-09T22:04:04.774Z,99983.38
2023-04-09T22:06:33.122Z,99989.25
2023-04-09T22:09:02.178Z,99984.16
2023-04-09T22:11:30.789Z,99988.16
2023-04-09T22:13:58.849Z,99990.34
2023-04-09T22:16:27.270Z,99982.44
2023-04-09T22:18:56.564Z,99987.81
2023-04-09T22:21:25.495Z,99987.44
2023-04-09T22:23:53.424Z,99993.87
2023-04-09T22:26:22.187Z,99995.91
2023-04-09T22:28:50.546Z,99984.13
2023-04-09T22:31:18.554Z,99992.59
2023-04-09T22:33:46.872Z,99984.06
2023-04-09T22:36:14.874Z,99989.59
2023-04-09T22:38:42.807Z,99988.69
2023-04-09T22:41:11.098Z,99996.41
2023-04-09T22:43:38.983Z,99993.16
2023-04-09T22:46:07.437Z,99989.00
2023-04-09T22:48:40.812Z,99989.81
2023-04-09T22:51:12.988Z,99995.53
2023-04-09T22:53:41.625Z,99995.28
2023-04-09T22:56:09.871Z,99997.06
2023-04-09T22:58:38.339Z,99990.03
2023-04-09T23:01:07.053Z,99992.97
2023-04-09T23:03:35.194Z,99988.28
2023-04-09T23:06:03.391Z,99988.38
2023-04-09T23:08:31.911Z,99994.94
2023-04-09T23:10:59.865Z,99991.81
2023-04-09T23:13:27.759Z,99995.78
2023-04-09T23:15:56.799Z,99991.38
2023-04-09T23:18:24.954Z,99989.75
2023-04-09T23:20:52.974Z,99997.53
2023-04-09T23:23:21.194Z,99989.28
2023-04-09T23:25:49.083Z,99991.34
2023-04-09T23:28:16.991Z,99988.28
2023-04-09T23:30:45.225Z,99984.56
2023-04-09T23:33:13.170Z,99989.44
2023-04-09T23:35:41.233Z,99985.09
2023-04-09T23:38:09.697Z,99981.31
2023-04-09T23:40:37.605Z,99978.59
2023-04-09T23:43:05.663Z,99984.78
2023-04-09T23:45:33.902Z,99987.56
2023-04-09T23:48:03.504Z,99986.78
2023-04-09T23:50:31.557Z,99990.38
2023-04-09T23:53:03.990Z,99981.62
2023-04-09T23:55:33.557Z,99986.16
2023-04-09T23:58:01.788Z,99976.94
